Time;durP1;ratioP1;P1;durP2;ratioP2;P2;SDS_P1;SDS_P2;PMS_P1;PMS_P2;Temp;Humidity;BMP_temperature;BMP_pressure;BME280_temperature;BME280_humidity;BME280_pressure;Samples;Min_cycle;Max_cycle;Signal;HPM_P1;HPM_P2
2023/10/03 00:05:54;;;;;;;;;;;17.50;99.90;;;;;;12588367;28;19980;-34
2023/10/03 00:12:01;;;;;;;;;;;17.60;99.90;;;;;;12577595;28;19928;-35
2023/10/03 00:18:09;;;;;;;;;;;17.80;99.90;;;;;;12576747;28;19929;-35
2023/10/03 00:24:19;;;;;;;;;;;18.00;99.90;;;;;;12577291;28;19928;-34
2023/10/03 00:30:40;;;;;;;;;;;18.30;99.90;;;;;;12572988;28;19929;-34
2023/10/03 00:36:55;;;;;;;;;;;18.40;99.90;;;;;;12566185;28;21607;-34
2023/10/03 00:43:07;;;;;;;;;;;18.40;99.90;;;;;;12549554;28;19932;-34
2023/10/03 00:49:19;;;;;;;;;;;18.40;99.90;;;;;;12571558;28;20430;-35
2023/10/03 00:55:32;;;;;;;;;;;18.40;99.90;;;;;;12575732;28;19936;-35
2023/10/03 01:01:46;;;;;;;;;;;18.40;99.90;;;;;;12570976;28;20300;-35
2023/10/03 01:07:57;;;;;;;;;;;18.50;99.90;;;;;;12582922;28;19932;-34
2023/10/03 01:14:09;;;;;;;;;;;18.50;99.90;;;;;;12574439;28;20061;-35
2023/10/03 01:21:05;;;;;;;;;;;18.40;99.90;;;;;;12576587;28;19955;-35
2023/10/03 01:26:45;;;;;;;;;;;18.40;99.90;;;;;;12563612;28;19932;-35
2023/10/03 01:32:58;;;;;;;;;;;18.40;99.90;;;;;;12573104;28;19937;-35
2023/10/03 01:39:08;;;;;;;;;;;18.30;99.90;;;;;;12577439;28;20281;-35
2023/10/03 01:45:24;;;;;;;;;;;18.40;99.90;;;;;;12564315;28;19999;-35
2023/10/03 01:51:32;;;;;;;;;;;18.40;99.90;;;;;;12572448;28;19959;-35
2023/10/03 01:57:42;;;;;;;;;;;18.40;99.90;;;;;;12570543;28;20675;-35
2023/10/03 02:03:54;;;;;;;;;;;18.40;99.90;;;;;;12549811;28;20293;-35
2023/10/03 02:10:04;;;;;;;;;;;18.40;99.90;;;;;;12513226;28;20387;-35
2023/10/03 02:16:14;;;;;;;;;;;18.50;99.90;;;;;;12512874;28;20019;-35
2023/10/03 02:22:25;;;;;;;;;;;18.60;99.90;;;;;;12517033;28;19929;-35
2023/10/03 02:28:36;;;;;;;;;;;18.60;99.90;;;;;;12498592;28;20448;-35
2023/10/03 02:34:50;;;;;;;;;;;18.60;99.90;;;;;;12514767;28;20301;-34
2023/10/03 02:41:12;;;;;;;;;;;18.60;99.90;;;;;;12515490;28;20407;-35
2023/10/03 02:47:23;;;;;;;;;;;18.70;99.90;;;;;;12506822;28;19935;-35
2023/10/03 02:53:35;;;;;;;;;;;18.70;99.90;;;;;;12513641;28;20293;-34
2023/10/03 02:59:44;;;;;;;;;;;18.90;99.90;;;;;;12509507;28;19933;-35
2023/10/03 03:05:53;;;;;;;;;;;18.90;99.90;;;;;;12557586;28;20300;-35
2023/10/03 03:12:00;;;;;;;;;;;18.90;99.90;;;;;;12565242;28;19939;-35
2023/10/03 03:18:12;;;;;;;;;;;19.00;99.90;;;;;;12622409;28;19925;-35
2023/10/03 03:24:33;;;;;;;;;;;19.10;99.90;;;;;;12619250;28;19924;-35
2023/10/03 03:37:22;;;;;;;;;;;19.10;99.90;;;;;;12600629;28;20405;-34
2023/10/03 03:43:31;;;;;;;;;;;19.20;99.90;;;;;;12606335;28;20380;-35
2023/10/03 03:49:42;;;;;;;;;;;19.10;99.90;;;;;;12623760;28;20505;-35
2023/10/03 03:56:05;;;;;;;;;;;19.00;99.90;;;;;;12628582;28;20418;-35
2023/10/03 04:02:18;;;;;;;;;;;19.20;99.90;;;;;;12619184;28;19925;-35
2023/10/03 04:08:32;;;;;;;;;;;19.30;99.90;;;;;;12578805;28;20045;-35
2023/10/03 04:15:01;;;;;;;;;;;19.30;99.90;;;;;;12577197;28;20287;-35
2023/10/03 04:21:14;;;;;;;;;;;19.30;99.90;;;;;;12575276;28;19932;-35
2023/10/03 04:27:37;;;;;;;;;;;19.30;99.90;;;;;;12573036;28;19932;-35
2023/10/03 04:34:03;;;;;;;;;;;19.30;99.90;;;;;;12575721;28;19928;-35
2023/10/03 04:40:28;;;;;;;;;;;19.40;99.90;;;;;;12581919;28;19951;-35
2023/10/03 04:46:53;;;;;;;;;;;19.30;99.90;;;;;;12620785;28;19974;-35
2023/10/03 04:53:07;;;;;;;;;;;19.30;99.90;;;;;;12621463;28;19940;-35
2023/10/03 04:59:13;;;;;;;;;;;19.40;99.90;;;;;;12626314;28;20019;-35
2023/10/03 05:05:24;;;;;;;;;;;19.50;99.90;;;;;;12618462;28;19925;-35
2023/10/03 05:11:31;;;;;;;;;;;19.50;99.90;;;;;;12621023;28;19931;-35
2023/10/03 05:17:38;;;;;;;;;;;19.70;99.90;;;;;;12619309;28;20416;-35
2023/10/03 05:23:43;;;;;;;;;;;19.80;99.90;;;;;;12617183;28;20277;-35
2023/10/03 05:29:48;;;;;;;;;;;19.90;99.90;;;;;;12612970;28;19929;-35
2023/10/03 05:35:51;;;;;;;;;;;20.00;99.90;;;;;;12614344;28;19927;-38
2023/10/03 05:42:00;;;;;;;;;;;19.90;99.90;;;;;;12609484;28;19927;-35
2023/10/03 05:48:15;;;;;;;;;;;19.90;99.90;;;;;;12610068;28;19924;-35
2023/10/03 05:54:26;;;;;;;;;;;20.00;99.90;;;;;;12617074;28;19925;-35
2023/10/03 06:00:36;;;;;;;;;;;20.20;99.90;;;;;;12620577;28;20350;-35
2023/10/03 06:06:46;;;;;;;;;;;20.30;99.90;;;;;;12615829;28;19931;-35
2023/10/03 06:12:53;;;;;;;;;;;20.30;99.90;;;;;;12614715;28;20007;-35
2023/10/03 06:19:03;;;;;;;;;;;20.20;99.90;;;;;;12612772;28;20245;-35
2023/10/03 06:25:14;;;;;;;;;;;20.20;99.90;;;;;;12597998;28;20303;-35
2023/10/03 06:31:17;;;;;;;;;;;20.10;99.90;;;;;;12615969;28;19931;-34
2023/10/03 06:37:19;;;;;;;;;;;20.10;99.90;;;;;;12613715;28;19932;-34
2023/10/03 06:43:25;;;;;;;;;;;20.10;99.90;;;;;;12601827;28;20022;-35
2023/10/03 06:49:38;;;;;;;;;;;20.10;99.90;;;;;;12603019;28;20682;-34
2023/10/03 06:55:48;;;;;;;;;;;20.10;99.90;;;;;;12621951;28;19932;-34
2023/10/03 07:01:58;;;;;;;;;;;20.10;99.90;;;;;;12619434;28;20300;-34
2023/10/03 07:08:15;;;;;;;;;;;20.10;99.90;;;;;;12569590;28;20438;-34
2023/10/03 07:14:27;;;;;;;;;;;20.10;99.90;;;;;;12578472;28;19924;-35
2023/10/03 07:20:40;;;;;;;;;;;20.10;99.90;;;;;;12574835;28;19936;-35
2023/10/03 07:26:51;;;;;;;;;;;20.00;99.90;;;;;;12578383;28;19936;-34
2023/10/03 07:33:05;;;;;;;;;;;20.10;99.90;;;;;;12557604;28;20008;-35
2023/10/03 07:39:21;;;;;;;;;;;20.20;99.90;;;;;;12578806;28;20002;-35
2023/10/03 07:45:34;;;;;;;;;;;20.20;99.90;;;;;;12541964;28;19970;-34
2023/10/03 07:51:47;;;;;;;;;;;20.20;99.90;;;;;;12575575;28;19978;-35
2023/10/03 07:57:54;;;;;;;;;;;20.30;99.90;;;;;;12573359;28;19933;-35
2023/10/03 08:03:58;;;;;;;;;;;20.50;99.90;;;;;;12555344;28;20007;-35
2023/10/03 08:10:05;;;;;;;;;;;20.40;99.90;;;;;;12557510;28;20031;-35
2023/10/03 08:16:12;;;;;;;;;;;20.30;99.90;;;;;;12573027;28;19929;-35
2023/10/03 08:22:22;;;;;;;;;;;20.20;99.90;;;;;;12564813;28;19936;-37
2023/10/03 08:28:34;;;;;;;;;;;20.20;99.90;;;;;;12554117;28;19929;-34
2023/10/03 08:34:44;;;;;;;;;;;20.10;99.90;;;;;;12569793;28;19924;-35
2023/10/03 08:40:57;;;;;;;;;;;20.30;99.90;;;;;;12570867;28;20372;-35
2023/10/03 08:47:09;;;;;;;;;;;20.30;99.90;;;;;;12547290;28;20277;-37
2023/10/03 08:53:31;;;;;;;;;;;20.20;99.90;;;;;;12570622;28;20400;-35
2023/10/03 08:59:46;;;;;;;;;;;20.00;99.90;;;;;;12548968;28;19928;-35
2023/10/03 09:05:59;;;;;;;;;;;20.10;99.90;;;;;;12570001;28;20387;-35
2023/10/03 09:12:25;;;;;;;;;;;20.20;99.90;;;;;;12562175;28;20397;-35
2023/10/03 09:18:50;;;;;;;;;;;20.10;99.90;;;;;;12558460;28;20312;-35
2023/10/03 09:25:07;;;;;;;;;;;20.10;99.90;;;;;;12572048;28;19929;-35
2023/10/03 09:31:31;;;;;;;;;;;20.00;99.90;;;;;;12567338;28;19955;-35
2023/10/03 09:37:58;;;;;;;;;;;20.00;99.90;;;;;;12570769;28;19931;-34
2023/10/03 09:44:10;;;;;;;;;;;19.90;99.90;;;;;;12619074;28;19967;-34
2023/10/03 09:50:22;;;;;;;;;;;19.80;99.90;;;;;;12620385;28;19931;-34
2023/10/03 09:56:40;;;;;;;;;;;19.60;99.90;;;;;;12627360;28;19976;-34
2023/10/03 10:03:04;;;;;;;;;;;19.50;99.90;;;;;;12604136;28;19931;-34
2023/10/03 10:09:36;;;;;;;;;;;19.30;99.90;;;;;;12565982;28;20358;-34
2023/10/03 10:16:01;;;;;;;;;;;19.20;99.90;;;;;;12561312;28;19932;-34
2023/10/03 10:22:04;;;;;;;;;;;19.10;99.90;;;;;;12572008;28;19978;-35
2023/10/03 10:28:10;;;;;;;;;;;19.10;99.90;;;;;;12569164;28;20370;-34
2023/10/03 10:34:23;;;;;;;;;;;19.00;99.90;;;;;;12572269;28;19932;-34
2023/10/03 10:40:35;;;;;;;;;;;19.00;99.90;;;;;;12557564;28;19929;-34
2023/10/03 10:46:49;;;;;;;;;;;18.90;99.90;;;;;;12558630;28;19975;-34
2023/10/03 10:53:02;;;;;;;;;;;18.80;99.90;;;;;;12565506;28;19928;-34
2023/10/03 10:59:11;;;;;;;;;;;18.60;99.90;;;;;;12568617;28;19932;-35
2023/10/03 11:05:22;;;;;;;;;;;18.50;99.90;;;;;;12539937;28;20388;-34
2023/10/03 11:11:41;;;;;;;;;;;18.40;99.90;;;;;;12572334;28;19940;-34
2023/10/03 11:17:51;;;;;;;;;;;18.40;99.90;;;;;;12571442;28;19931;-34
2023/10/03 11:24:16;;;;;;;;;;;18.50;99.90;;;;;;12565118;28;20407;-34
2023/10/03 11:30:28;;;;;;;;;;;18.70;99.90;;;;;;12554168;28;19971;-34
2023/10/03 11:36:43;;;;;;;;;;;18.80;99.90;;;;;;12549583;28;20304;-34
2023/10/03 11:43:04;;;;;;;;;;;18.90;99.90;;;;;;12561571;28;20320;-34
2023/10/03 11:49:17;;;;;;;;;;;18.90;99.90;;;;;;12579825;28;19932;-35
2023/10/03 11:55:36;;;;;;;;;;;19.00;99.90;;;;;;12572785;28;19964;-34
2023/10/03 12:01:56;;;;;;;;;;;18.90;99.90;;;;;;12578147;28;19955;-34
2023/10/03 12:08:10;;;;;;;;;;;19.00;99.90;;;;;;12565637;28;20455;-34
2023/10/03 12:14:20;;;;;;;;;;;18.40;99.90;;;;;;12580086;28;19928;-34
2023/10/03 12:20:38;;;;;;;;;;;17.20;99.90;;;;;;12574842;28;19978;-34
2023/10/03 12:27:08;;;;;;;;;;;16.70;99.90;;;;;;12568804;28;20019;-34
2023/10/03 12:33:30;;;;;;;;;;;16.50;99.90;;;;;;12574764;28;19933;-34
2023/10/03 12:40:01;;;;;;;;;;;16.40;99.90;;;;;;12585422;28;19932;-34
2023/10/03 12:46:20;;;;;;;;;;;16.40;99.90;;;;;;12568296;28;19978;-34
2023/10/03 12:52:30;;;;;;;;;;;16.50;99.90;;;;;;12556157;28;19936;-34
2023/10/03 12:58:45;;;;;;;;;;;16.60;99.90;;;;;;12573242;28;19931;-34
2023/10/03 13:04:56;;;;;;;;;;;16.60;99.90;;;;;;12573059;28;20297;-34
2023/10/03 13:11:08;;;;;;;;;;;16.50;99.90;;;;;;12578779;28;19936;-34
2023/10/03 13:17:28;;;;;;;;;;;16.20;99.90;;;;;;12571054;28;19933;-34
2023/10/03 13:23:42;;;;;;;;;;;16.30;99.90;;;;;;12563358;28;20388;-34
2023/10/03 13:30:00;;;;;;;;;;;16.50;99.90;;;;;;12572602;28;20461;-34
2023/10/03 13:36:20;;;;;;;;;;;16.50;99.90;;;;;;12600768;28;19928;-34
2023/10/03 13:42:40;;;;;;;;;;;16.20;99.90;;;;;;12622622;28;19924;-34
2023/10/03 13:48:57;;;;;;;;;;;16.00;99.90;;;;;;12627647;28;20548;-34
2023/10/03 13:55:29;;;;;;;;;;;16.00;99.90;;;;;;12618442;28;19992;-34
2023/10/03 14:01:47;;;;;;;;;;;16.00;99.90;;;;;;12622108;28;19928;-34
2023/10/03 14:08:16;;;;;;;;;;;16.10;99.90;;;;;;12553561;28;19957;-34
2023/10/03 14:14:35;;;;;;;;;;;16.20;99.90;;;;;;12569973;28;20782;-34
2023/10/03 14:20:50;;;;;;;;;;;16.20;99.90;;;;;;12570301;28;19924;-34
2023/10/03 14:27:07;;;;;;;;;;;16.00;99.90;;;;;;12555803;28;19933;-34
2023/10/03 14:33:23;;;;;;;;;;;15.70;99.90;;;;;;12571053;28;19974;-34
2023/10/03 14:39:39;;;;;;;;;;;15.50;99.90;;;;;;12570872;28;19933;-34
2023/10/03 14:46:07;;;;;;;;;;;15.10;99.90;;;;;;12576016;28;20297;-34
2023/10/03 14:52:34;;;;;;;;;;;15.10;99.90;;;;;;12571473;28;20015;-34
2023/10/03 14:58:42;;;;;;;;;;;14.70;99.90;;;;;;12569340;28;19951;-34
2023/10/03 15:04:53;;;;;;;;;;;14.50;99.90;;;;;;12569897;28;20016;-34
2023/10/03 15:11:07;;;;;;;;;;;14.30;99.90;;;;;;12558950;28;20381;-34
2023/10/03 15:17:22;;;;;;;;;;;13.90;99.90;;;;;;12572929;28;20519;-34
2023/10/03 15:23:41;;;;;;;;;;;13.70;99.90;;;;;;12566477;28;19960;-34
2023/10/03 15:30:08;;;;;;;;;;;13.80;99.90;;;;;;12581578;28;20423;-33
2023/10/03 15:36:37;;;;;;;;;;;13.60;99.90;;;;;;12568133;28;20001;-34
2023/10/03 15:42:47;;;;;;;;;;;13.90;99.90;;;;;;12588097;28;19925;-34
2023/10/03 15:48:55;;;;;;;;;;;14.10;99.90;;;;;;12571677;28;20364;-34
2023/10/03 15:55:15;;;;;;;;;;;13.80;99.90;;;;;;12592040;28;20015;-33
2023/10/03 16:01:44;;;;;;;;;;;13.70;99.90;;;;;;12560786;28;19970;-34
2023/10/03 16:08:20;;;;;;;;;;;13.80;99.90;;;;;;12581413;28;20327;-34
2023/10/03 16:14:41;;;;;;;;;;;13.90;99.90;;;;;;12576549;28;19925;-34
2023/10/03 16:20:56;;;;;;;;;;;13.80;99.90;;;;;;12591834;28;20395;-34
2023/10/03 16:27:14;;;;;;;;;;;13.80;99.90;;;;;;12580940;28;19982;-34
2023/10/03 16:33:36;;;;;;;;;;;13.90;99.90;;;;;;12578595;28;20343;-34
2023/10/03 16:39:54;;;;;;;;;;;13.80;99.90;;;;;;12557864;28;19951;-34
2023/10/03 16:46:16;;;;;;;;;;;13.80;99.90;;;;;;12578183;28;20478;-34
2023/10/03 16:52:34;;;;;;;;;;;13.60;99.90;;;;;;12559754;28;20867;-34
2023/10/03 16:58:53;;;;;;;;;;;13.70;99.90;;;;;;12577694;28;19932;-34
2023/10/03 17:05:13;;;;;;;;;;;13.60;99.90;;;;;;12568819;28;19961;-34
2023/10/03 17:11:21;;;;;;;;;;;13.50;99.90;;;;;;12581905;28;20385;-34
2023/10/03 17:17:35;;;;;;;;;;;13.30;99.90;;;;;;12557052;28;19932;-34
2023/10/03 17:23:48;;;;;;;;;;;13.40;99.90;;;;;;12571580;28;19924;-34
2023/10/03 17:29:56;;;;;;;;;;;13.40;99.90;;;;;;12572168;28;19932;-34
2023/10/03 17:36:09;;;;;;;;;;;13.20;99.90;;;;;;12572869;28;20299;-34
2023/10/03 17:42:30;;;;;;;;;;;13.00;99.90;;;;;;12562545;28;21137;-34
2023/10/03 17:48:38;;;;;;;;;;;13.20;99.90;;;;;;12571284;28;19924;-34
2023/10/03 17:54:46;;;;;;;;;;;13.10;99.90;;;;;;12569926;28;19931;-35
2023/10/03 18:00:54;;;;;;;;;;;13.00;99.90;;;;;;12569225;28;19983;-34
2023/10/03 18:07:05;;;;;;;;;;;12.90;99.90;;;;;;12560526;28;20441;-34
2023/10/03 18:13:14;;;;;;;;;;;13.20;99.90;;;;;;12571311;28;19924;-34
2023/10/03 18:19:22;;;;;;;;;;;13.00;99.90;;;;;;12567693;28;20058;-34
2023/10/03 18:25:30;;;;;;;;;;;13.00;99.90;;;;;;12570714;28;19958;-34
2023/10/03 18:31:37;;;;;;;;;;;13.00;99.90;;;;;;12571687;28;19925;-34
2023/10/03 18:37:45;;;;;;;;;;;13.00;99.90;;;;;;12564277;28;19924;-34
2023/10/03 18:43:54;;;;;;;;;;;13.00;99.90;;;;;;12574161;28;19928;-34
2023/10/03 18:50:00;;;;;;;;;;;13.10;99.90;;;;;;12537638;28;20007;-34
2023/10/03 18:56:03;;;;;;;;;;;13.00;99.90;;;;;;12553641;28;20287;-34
2023/10/03 19:02:05;;;;;;;;;;;13.00;99.90;;;;;;12559774;28;19929;-34
2023/10/03 19:08:07;;;;;;;;;;;12.90;99.90;;;;;;12522373;28;20406;-34
2023/10/03 19:14:09;;;;;;;;;;;12.90;99.90;;;;;;12546108;28;20459;-33
2023/10/03 19:20:11;;;;;;;;;;;12.90;99.90;;;;;;12548895;28;20479;-34
2023/10/03 19:26:13;;;;;;;;;;;12.90;99.90;;;;;;12549938;28;19975;-34
2023/10/03 19:32:15;;;;;;;;;;;13.00;99.90;;;;;;12529179;28;19933;-33
2023/10/03 19:38:17;;;;;;;;;;;13.00;99.90;;;;;;12552140;28;20059;-34
2023/10/03 19:44:19;;;;;;;;;;;13.00;99.90;;;;;;12561775;28;20400;-34
2023/10/03 19:50:20;;;;;;;;;;;13.00;99.90;;;;;;12556566;28;19928;-34
2023/10/03 19:56:24;;;;;;;;;;;13.00;99.90;;;;;;12561843;28;19932;-34
2023/10/03 20:02:25;;;;;;;;;;;12.90;99.90;;;;;;12553101;28;20433;-34
2023/10/03 20:08:28;;;;;;;;;;;12.80;99.90;;;;;;12526189;28;20356;-34
2023/10/03 20:14:30;;;;;;;;;;;12.80;99.90;;;;;;12559254;28;19928;-34
2023/10/03 20:20:31;;;;;;;;;;;12.90;99.90;;;;;;12555882;28;20026;-34
2023/10/03 20:26:33;;;;;;;;;;;13.00;99.90;;;;;;12555995;28;19928;-34
2023/10/03 20:32:36;;;;;;;;;;;13.00;99.90;;;;;;12558911;28;19935;-34
2023/10/03 20:38:38;;;;;;;;;;;13.10;99.90;;;;;;12557912;28;19933;-33
2023/10/03 20:44:39;;;;;;;;;;;13.00;99.90;;;;;;12559330;28;20420;-34
2023/10/03 20:50:41;;;;;;;;;;;13.10;99.90;;;;;;12557138;28;19986;-34
2023/10/03 20:56:43;;;;;;;;;;;13.10;99.90;;;;;;12553273;28;19963;-34
2023/10/03 21:02:44;;;;;;;;;;;13.10;99.90;;;;;;12556683;28;19929;-33
2023/10/03 21:08:47;;;;;;;;;;;13.10;99.90;;;;;;12533107;28;21625;-34
2023/10/03 21:14:49;;;;;;;;;;;13.00;99.90;;;;;;12555785;28;19933;-34
2023/10/03 21:20:51;;;;;;;;;;;13.10;99.90;;;;;;12558144;28;19928;-34
2023/10/03 21:26:54;;;;;;;;;;;13.10;99.90;;;;;;12548963;28;19929;-34
2023/10/03 21:32:56;;;;;;;;;;;13.10;99.90;;;;;;12542929;28;19929;-34
2023/10/03 21:38:57;;;;;;;;;;;13.10;99.90;;;;;;12548868;28;19928;-33
2023/10/03 21:44:59;;;;;;;;;;;13.10;99.90;;;;;;12557585;28;19983;-34
2023/10/03 21:51:06;;;;;;;;;;;13.10;99.90;;;;;;12531424;28;19932;-33
2023/10/03 21:57:08;;;;;;;;;;;13.10;99.90;;;;;;12552445;28;20910;-33
2023/10/03 22:03:10;;;;;;;;;;;12.90;99.90;;;;;;12534673;28;19933;-34
2023/10/03 22:09:14;;;;;;;;;;;12.90;99.90;;;;;;12525235;28;20479;-34
2023/10/03 22:15:18;;;;;;;;;;;12.90;99.90;;;;;;12547886;28;20359;-33
2023/10/03 22:21:20;;;;;;;;;;;12.90;99.90;;;;;;12552243;28;19929;-34
2023/10/03 22:27:22;;;;;;;;;;;12.90;99.90;;;;;;12544160;28;20384;-34
2023/10/03 22:33:24;;;;;;;;;;;12.80;99.90;;;;;;12548733;28;20403;-33
2023/10/03 22:39:27;;;;;;;;;;;12.80;99.90;;;;;;12550174;28;20311;-34
2023/10/03 22:45:29;;;;;;;;;;;12.80;99.90;;;;;;12549326;28;19928;-33
2023/10/03 22:51:31;;;;;;;;;;;12.80;99.90;;;;;;12544045;28;19977;-33
2023/10/03 22:57:34;;;;;;;;;;;12.80;99.90;;;;;;12549365;28;20380;-34
2023/10/03 23:03:36;;;;;;;;;;;12.80;99.90;;;;;;12520361;28;20051;-34
2023/10/03 23:09:37;;;;;;;;;;;12.80;99.90;;;;;;12548237;28;19936;-34
2023/10/03 23:15:40;;;;;;;;;;;12.70;99.90;;;;;;12551379;28;20835;-34
2023/10/03 23:21:42;;;;;;;;;;;12.70;99.90;;;;;;12551899;28;20495;-34
2023/10/03 23:27:44;;;;;;;;;;;12.70;99.90;;;;;;12547592;28;20023;-34
2023/10/03 23:33:46;;;;;;;;;;;12.70;99.90;;;;;;12554780;28;19929;-34
2023/10/03 23:39:51;;;;;;;;;;;12.60;99.90;;;;;;12527857;28;19936;-34
2023/10/03 23:45:54;;;;;;;;;;;12.70;99.90;;;;;;12557074;28;19936;-34
2023/10/03 23:51:56;;;;;;;;;;;12.60;99.90;;;;;;12559889;28;19953;-34
2023/10/03 23:58:00;;;;;;;;;;;12.70;99.90;;;;;;12556025;28;19935;-34
